TimeEST,TemperatureF,Dew PointF,Humidity,Sea Level PressureIn,VisibilityMPH,Wind Direction,Wind SpeedMPH,Gust SpeedMPH,PrecipitationIn,Events,Conditions,WindDirDegrees,DateUTC
12:53 AM,72.0,71.1,97,30.08,5.0,Calm,Calm,-,N/A,,Partly Cloudy,0,2014-01-12 05:53:00
1:53 AM,72.0,71.1,97,30.08,4.0,Calm,Calm,-,N/A,,Clear,0,2014-01-12 06:53:00
2:53 AM,71.1,71.1,100,30.08,4.0,Calm,Calm,-,N/A,,Clear,0,2014-01-12 07:53:00
3:53 AM,72.0,71.1,97,30.07,6.0,Calm,Calm,-,N/A,,Partly Cloudy,0,2014-01-12 08:53:00
4:53 AM,72.0,71.1,97,30.06,6.0,Calm,Calm,-,N/A,,Clear,0,2014-01-12 09:53:00
5:53 AM,72.0,71.1,97,30.07,10.0,North,8.1,-,N/A,,Mostly Cloudy,350,2014-01-12 10:53:00
6:53 AM,72.0,70.0,93,30.09,10.0,North,8.1,-,N/A,,Scattered Clouds,350,2014-01-12 11:53:00
7:53 AM,71.1,69.1,93,30.10,10.0,North,6.9,-,N/A,,Clear,360,2014-01-12 12:53:00
8:53 AM,73.0,69.1,87,30.14,10.0,North,5.8,-,N/A,,Mostly Cloudy,360,2014-01-12 13:53:00
9:22 AM,73.0,69.1,87,30.15,10.0,North,6.9,-,N/A,,Overcast,360,2014-01-12 14:22:00
9:53 AM,73.0,69.1,87,30.16,10.0,North,9.2,-,N/A,,Overcast,10,2014-01-12 14:53:00
10:00 AM,73.0,69.1,87,30.16,10.0,North,11.5,-,N/A,,Overcast,10,2014-01-12 15:00:00
10:25 AM,73.0,69.1,87,30.16,10.0,North,10.4,-,N/A,,Overcast,10,2014-01-12 15:25:00
10:34 AM,73.0,69.1,87,30.16,10.0,NNE,10.4,-,N/A,,Overcast,20,2014-01-12 15:34:00
10:53 AM,73.0,68.0,84,30.16,10.0,North,11.5,-,N/A,,Overcast,10,2014-01-12 15:53:00
11:10 AM,73.0,66.9,81,30.15,10.0,North,13.8,-,N/A,,Overcast,10,2014-01-12 16:10:00
11:35 AM,72.0,66.0,81,30.15,10.0,NNE,12.7,-,N/A,,Mostly Cloudy,20,2014-01-12 16:35:00
11:53 AM,72.0,66.0,81,30.14,10.0,NNE,13.8,-,N/A,,Scattered Clouds,20,2014-01-12 16:53:00
12:53 PM,72.0,64.9,78,30.12,10.0,North,15.0,19.6,N/A,,Clear,10,2014-01-12 17:53:00
1:53 PM,73.0,64.9,76,30.09,10.0,NNE,12.7,-,N/A,,Clear,20,2014-01-12 18:53:00
2:53 PM,73.0,66.0,79,30.09,10.0,NNE,11.5,-,N/A,,Partly Cloudy,30,2014-01-12 19:53:00
3:53 PM,75.0,66.9,76,30.10,10.0,North,9.2,-,N/A,,Clear,10,2014-01-12 20:53:00
4:53 PM,73.0,66.0,79,30.11,10.0,NE,8.1,-,N/A,,Clear,40,2014-01-12 21:53:00
5:49 PM,71.6,64.4,78,30.12,10.0,NNE,5.8,-,N/A,,Mostly Cloudy,30,2014-01-12 22:49:00
5:53 PM,72.0,64.9,78,30.12,10.0,NNE,5.8,-,N/A,,Mostly Cloudy,30,2014-01-12 22:53:00
6:45 PM,71.1,64.9,81,30.13,10.0,NE,4.6,-,N/A,,Mostly Cloudy,40,2014-01-12 23:45:00
6:53 PM,72.0,66.0,81,30.13,10.0,NE,4.6,-,N/A,,Mostly Cloudy,40,2014-01-12 23:53:00
7:53 PM,71.1,66.0,84,30.15,10.0,NE,5.8,-,N/A,,Overcast,40,2014-01-13 00:53:00
8:53 PM,72.0,66.0,81,30.16,10.0,NNE,3.5,-,N/A,,Mostly Cloudy,30,2014-01-13 01:53:00
9:53 PM,72.0,66.0,81,30.16,10.0,NE,4.6,-,N/A,,Mostly Cloudy,40,2014-01-13 02:53:00
10:53 PM,72.0,66.9,84,30.15,10.0,NNE,4.6,-,N/A,,Clear,30,2014-01-13 03:53:00
11:53 PM,71.1,69.1,93,30.14,10.0,NE,4.6,-,N/A,,Clear,40,2014-01-13 04:53:00